<?xml version="1.0" encoding="UTF-8" standalone="no" ?>
<gpx xmlns="http://www.topografix.com/GPX/1/1" xmlns:xsi="http://www.w3.org/2001/XMLSchema-instance" xsi:schemaLocation="http://www.topografix.com/GPX/1/1 http://www.topografix.com/GPX/1/1/gpx.xsd" version="1.1" creator="VisuGPX - https://www.visugpx.com">
  <metadata>
    <name>MV St Hil Les Pistes</name>
  </metadata>
  <wpt lat="45.29887" lon="5.89881">
    <ele>249</ele>
    <name><![CDATA[Point de passage 1]]></name>
    <type><![CDATA[GENERIC]]></type>
  </wpt>
  <wpt lat="45.31323" lon="5.87411">
    <ele>1281</ele>
    <name><![CDATA[Point de passage 2]]></name>
    <type><![CDATA[GENERIC]]></type>
  </wpt>
  <trk>
    <name><![CDATA[MV St Hil Les Pistes ]]></name>
    <trkseg>
      <trkpt lat="45.29887" lon="5.89881">
        <ele>249</ele>
        <time>2026-04-17T08:21:57.000Z</time>
      </trkpt>
      <trkpt lat="45.29891" lon="5.8988">
        <ele>250</ele>
        <time>2026-04-17T08:22:00.000Z</time>
      </trkpt>
      <trkpt lat="45.29911" lon="5.8987">
        <ele>252</ele>
        <time>2026-04-17T08:22:24.000Z</time>
      </trkpt>
      <trkpt lat="45.29934" lon="5.89857">
        <ele>254</ele>
        <time>2026-04-17T08:22:48.000Z</time>
      </trkpt>
      <trkpt lat="45.29955" lon="5.89838">
        <ele>258</ele>
        <time>2026-04-17T08:23:12.000Z</time>
      </trkpt>
      <trkpt lat="45.29976" lon="5.89819">
        <ele>262</ele>
        <time>2026-04-17T08:23:36.000Z</time>
      </trkpt>
      <trkpt lat="45.29998" lon="5.89806">
        <ele>266</ele>
        <time>2026-04-17T08:24:03.000Z</time>
      </trkpt>
      <trkpt lat="45.30019" lon="5.89795">
        <ele>268</ele>
        <time>2026-04-17T08:24:36.000Z</time>
      </trkpt>
      <trkpt lat="45.30039" lon="5.89779">
        <ele>271</ele>
        <time>2026-04-17T08:25:06.000Z</time>
      </trkpt>
      <trkpt lat="45.30054" lon="5.89753">
        <ele>275</ele>
        <time>2026-04-17T08:25:36.000Z</time>
      </trkpt>
      <trkpt lat="45.30065" lon="5.89724">
        <ele>281</ele>
        <time>2026-04-17T08:26:09.000Z</time>
      </trkpt>
      <trkpt lat="45.30067" lon="5.89691">
        <ele>291</ele>
        <time>2026-04-17T08:26:48.000Z</time>
      </trkpt>
      <trkpt lat="45.30068" lon="5.89656">
        <ele>302</ele>
        <time>2026-04-17T08:27:36.000Z</time>
      </trkpt>
      <trkpt lat="45.30075" lon="5.89627">
        <ele>308</ele>
        <time>2026-04-17T08:28:21.000Z</time>
      </trkpt>
      <trkpt lat="45.30066" lon="5.89598">
        <ele>317</ele>
        <time>2026-04-17T08:29:33.000Z</time>
      </trkpt>
      <trkpt lat="45.30057" lon="5.89565">
        <ele>325</ele>
        <time>2026-04-17T08:30:21.000Z</time>
      </trkpt>
      <trkpt lat="45.30049" lon="5.89533">
        <ele>332</ele>
        <time>2026-04-17T08:31:30.000Z</time>
      </trkpt>
      <trkpt lat="45.30038" lon="5.89505">
        <ele>340</ele>
        <time>2026-04-17T08:32:30.000Z</time>
      </trkpt>
      <trkpt lat="45.30024" lon="5.8948">
        <ele>348</ele>
        <time>2026-04-17T08:33:18.000Z</time>
      </trkpt>
      <trkpt lat="45.30011" lon="5.89453">
        <ele>352</ele>
        <time>2026-04-17T08:34:09.000Z</time>
      </trkpt>
      <trkpt lat="45.30012" lon="5.89422">
        <ele>360</ele>
        <time>2026-04-17T08:35:00.000Z</time>
      </trkpt>
      <trkpt lat="45.30025" lon="5.89397">
        <ele>372</ele>
        <time>2026-04-17T08:35:36.000Z</time>
      </trkpt>
      <trkpt lat="45.30037" lon="5.89371">
        <ele>386</ele>
        <time>2026-04-17T08:36:21.000Z</time>
      </trkpt>
      <trkpt lat="45.30057" lon="5.89358">
        <ele>393</ele>
        <time>2026-04-17T08:37:06.000Z</time>
      </trkpt>
      <trkpt lat="45.3008" lon="5.89357">
        <ele>401</ele>
        <time>2026-04-17T08:37:51.000Z</time>
      </trkpt>
      <trkpt lat="45.30104" lon="5.89361">
        <ele>407</ele>
        <time>2026-04-17T08:38:42.000Z</time>
      </trkpt>
      <trkpt lat="45.30127" lon="5.89362">
        <ele>415</ele>
        <time>2026-04-17T08:39:21.000Z</time>
      </trkpt>
      <trkpt lat="45.30149" lon="5.89363">
        <ele>421</ele>
        <time>2026-04-17T08:39:57.000Z</time>
      </trkpt>
      <trkpt lat="45.30172" lon="5.89368">
        <ele>424</ele>
        <time>2026-04-17T08:40:45.000Z</time>
      </trkpt>
      <trkpt lat="45.30197" lon="5.89368">
        <ele>431</ele>
        <time>2026-04-17T08:41:33.000Z</time>
      </trkpt>
      <trkpt lat="45.3022" lon="5.89365">
        <ele>439</ele>
        <time>2026-04-17T08:42:18.000Z</time>
      </trkpt>
      <trkpt lat="45.30242" lon="5.89361">
        <ele>447</ele>
        <time>2026-04-17T08:43:12.000Z</time>
      </trkpt>
      <trkpt lat="45.30261" lon="5.89344">
        <ele>453</ele>
        <time>2026-04-17T08:44:12.000Z</time>
      </trkpt>
      <trkpt lat="45.3028" lon="5.89326">
        <ele>461</ele>
        <time>2026-04-17T08:45:09.000Z</time>
      </trkpt>
      <trkpt lat="45.30297" lon="5.89305">
        <ele>469</ele>
        <time>2026-04-17T08:46:15.000Z</time>
      </trkpt>
      <trkpt lat="45.30304" lon="5.89277">
        <ele>482</ele>
        <time>2026-04-17T08:47:18.000Z</time>
      </trkpt>
      <trkpt lat="45.30318" lon="5.89251">
        <ele>487</ele>
        <time>2026-04-17T08:48:03.000Z</time>
      </trkpt>
      <trkpt lat="45.30329" lon="5.89223">
        <ele>502</ele>
        <time>2026-04-17T08:48:45.000Z</time>
      </trkpt>
      <trkpt lat="45.30342" lon="5.89197">
        <ele>511</ele>
        <time>2026-04-17T08:49:42.000Z</time>
      </trkpt>
      <trkpt lat="45.3036" lon="5.89179">
        <ele>515</ele>
        <time>2026-04-17T08:50:45.000Z</time>
      </trkpt>
      <trkpt lat="45.30375" lon="5.89155">
        <ele>520</ele>
        <time>2026-04-17T08:51:27.000Z</time>
      </trkpt>
      <trkpt lat="45.30397" lon="5.89153">
        <ele>519</ele>
        <time>2026-04-17T08:52:30.000Z</time>
      </trkpt>
      <trkpt lat="45.30414" lon="5.89175">
        <ele>522</ele>
        <time>2026-04-17T08:58:02.000Z</time>
      </trkpt>
      <trkpt lat="45.30433" lon="5.89194">
        <ele>530</ele>
        <time>2026-04-17T08:58:50.000Z</time>
      </trkpt>
      <trkpt lat="45.30451" lon="5.89213">
        <ele>534</ele>
        <time>2026-04-17T08:59:44.000Z</time>
      </trkpt>
      <trkpt lat="45.30471" lon="5.89231">
        <ele>539</ele>
        <time>2026-04-17T09:00:26.000Z</time>
      </trkpt>
      <trkpt lat="45.30489" lon="5.89251">
        <ele>544</ele>
        <time>2026-04-17T09:01:26.000Z</time>
      </trkpt>
      <trkpt lat="45.30509" lon="5.89263">
        <ele>549</ele>
        <time>2026-04-17T09:03:02.000Z</time>
      </trkpt>
      <trkpt lat="45.30524" lon="5.89288">
        <ele>559</ele>
        <time>2026-04-17T09:03:47.000Z</time>
      </trkpt>
      <trkpt lat="45.30537" lon="5.89316">
        <ele>567</ele>
        <time>2026-04-17T09:04:59.000Z</time>
      </trkpt>
      <trkpt lat="45.30548" lon="5.89345">
        <ele>575</ele>
        <time>2026-04-17T09:06:08.000Z</time>
      </trkpt>
      <trkpt lat="45.30559" lon="5.89373">
        <ele>587</ele>
        <time>2026-04-17T09:07:17.000Z</time>
      </trkpt>
      <trkpt lat="45.30573" lon="5.89398">
        <ele>592</ele>
        <time>2026-04-17T09:08:17.000Z</time>
      </trkpt>
      <trkpt lat="45.30583" lon="5.89426">
        <ele>600</ele>
        <time>2026-04-17T09:09:20.000Z</time>
      </trkpt>
      <trkpt lat="45.30602" lon="5.89425">
        <ele>614</ele>
        <time>2026-04-17T09:10:53.000Z</time>
      </trkpt>
      <trkpt lat="45.30609" lon="5.89395">
        <ele>627</ele>
        <time>2026-04-17T09:12:11.000Z</time>
      </trkpt>
      <trkpt lat="45.30613" lon="5.89363">
        <ele>639</ele>
        <time>2026-04-17T09:12:56.000Z</time>
      </trkpt>
      <trkpt lat="45.30631" lon="5.89344">
        <ele>651</ele>
        <time>2026-04-17T09:14:50.000Z</time>
      </trkpt>
      <trkpt lat="45.30654" lon="5.8935">
        <ele>664</ele>
        <time>2026-04-17T09:16:26.000Z</time>
      </trkpt>
      <trkpt lat="45.30677" lon="5.89355">
        <ele>672</ele>
        <time>2026-04-17T09:17:50.000Z</time>
      </trkpt>
      <trkpt lat="45.30699" lon="5.89347">
        <ele>683</ele>
        <time>2026-04-17T09:19:38.000Z</time>
      </trkpt>
      <trkpt lat="45.30715" lon="5.89327">
        <ele>696</ele>
        <time>2026-04-17T09:21:12.000Z</time>
      </trkpt>
      <trkpt lat="45.30716" lon="5.89293">
        <ele>708</ele>
        <time>2026-04-17T09:21:59.000Z</time>
      </trkpt>
      <trkpt lat="45.30711" lon="5.89261">
        <ele>714</ele>
        <time>2026-04-17T09:22:45.000Z</time>
      </trkpt>
      <trkpt lat="45.30711" lon="5.89229">
        <ele>725</ele>
        <time>2026-04-17T09:23:27.000Z</time>
      </trkpt>
      <trkpt lat="45.30715" lon="5.89197">
        <ele>737</ele>
        <time>2026-04-17T09:24:21.000Z</time>
      </trkpt>
      <trkpt lat="45.30711" lon="5.89164">
        <ele>742</ele>
        <time>2026-04-17T09:25:18.000Z</time>
      </trkpt>
      <trkpt lat="45.30704" lon="5.89132">
        <ele>748</ele>
        <time>2026-04-17T09:26:18.000Z</time>
      </trkpt>
      <trkpt lat="45.307" lon="5.89105">
        <ele>755</ele>
        <time>2026-04-17T09:27:09.000Z</time>
      </trkpt>
      <trkpt lat="45.30717" lon="5.89094">
        <ele>768</ele>
        <time>2026-04-17T09:29:00.000Z</time>
      </trkpt>
      <trkpt lat="45.30739" lon="5.891">
        <ele>782</ele>
        <time>2026-04-17T09:29:39.000Z</time>
      </trkpt>
      <trkpt lat="45.30758" lon="5.89116">
        <ele>793</ele>
        <time>2026-04-17T09:30:27.000Z</time>
      </trkpt>
      <trkpt lat="45.30774" lon="5.8914">
        <ele>801</ele>
        <time>2026-04-17T09:31:24.000Z</time>
      </trkpt>
      <trkpt lat="45.30787" lon="5.89158">
        <ele>808</ele>
        <time>2026-04-17T09:32:18.000Z</time>
      </trkpt>
      <trkpt lat="45.30795" lon="5.89134">
        <ele>830</ele>
        <time>2026-04-17T09:34:39.000Z</time>
      </trkpt>
      <trkpt lat="45.30797" lon="5.89103">
        <ele>852</ele>
        <time>2026-04-17T09:35:09.000Z</time>
      </trkpt>
      <trkpt lat="45.30792" lon="5.89072">
        <ele>856</ele>
        <time>2026-04-17T09:36:12.000Z</time>
      </trkpt>
      <trkpt lat="45.30778" lon="5.89048">
        <ele>845</ele>
        <time>2026-04-17T09:37:36.000Z</time>
      </trkpt>
      <trkpt lat="45.30764" lon="5.89023">
        <ele>838</ele>
        <time>2026-04-17T09:38:27.000Z</time>
      </trkpt>
      <trkpt lat="45.30751" lon="5.88997">
        <ele>837</ele>
        <time>2026-04-17T09:39:21.000Z</time>
      </trkpt>
      <trkpt lat="45.30738" lon="5.88971">
        <ele>834</ele>
        <time>2026-04-17T09:39:57.000Z</time>
      </trkpt>
      <trkpt lat="45.30732" lon="5.88941">
        <ele>843</ele>
        <time>2026-04-17T09:41:18.000Z</time>
      </trkpt>
      <trkpt lat="45.3074" lon="5.8892">
        <ele>860</ele>
        <time>2026-04-17T09:43:34.000Z</time>
      </trkpt>
      <trkpt lat="45.30747" lon="5.88945">
        <ele>857</ele>
        <time>2026-04-17T09:44:40.000Z</time>
      </trkpt>
      <trkpt lat="45.30761" lon="5.88974">
        <ele>858</ele>
        <time>2026-04-17T09:45:16.000Z</time>
      </trkpt>
      <trkpt lat="45.30773" lon="5.89003">
        <ele>857</ele>
        <time>2026-04-17T09:45:52.000Z</time>
      </trkpt>
      <trkpt lat="45.30789" lon="5.89027">
        <ele>862</ele>
        <time>2026-04-17T09:46:25.000Z</time>
      </trkpt>
      <trkpt lat="45.30803" lon="5.89055">
        <ele>868</ele>
        <time>2026-04-17T09:47:10.000Z</time>
      </trkpt>
      <trkpt lat="45.30814" lon="5.89083">
        <ele>874</ele>
        <time>2026-04-17T09:48:31.000Z</time>
      </trkpt>
      <trkpt lat="45.30828" lon="5.8911">
        <ele>882</ele>
        <time>2026-04-17T09:49:19.000Z</time>
      </trkpt>
      <trkpt lat="45.30843" lon="5.89128">
        <ele>884</ele>
        <time>2026-04-17T09:50:01.000Z</time>
      </trkpt>
      <trkpt lat="45.30857" lon="5.89107">
        <ele>896</ele>
        <time>2026-04-17T09:51:04.000Z</time>
      </trkpt>
      <trkpt lat="45.30864" lon="5.89077">
        <ele>901</ele>
        <time>2026-04-17T09:51:43.000Z</time>
      </trkpt>
      <trkpt lat="45.30867" lon="5.89045">
        <ele>905</ele>
        <time>2026-04-17T09:52:22.000Z</time>
      </trkpt>
      <trkpt lat="45.30868" lon="5.89013">
        <ele>908</ele>
        <time>2026-04-17T09:53:01.000Z</time>
      </trkpt>
      <trkpt lat="45.30866" lon="5.88981">
        <ele>913</ele>
        <time>2026-04-17T09:53:43.000Z</time>
      </trkpt>
      <trkpt lat="45.30861" lon="5.8895">
        <ele>919</ele>
        <time>2026-04-17T09:54:25.000Z</time>
      </trkpt>
      <trkpt lat="45.30857" lon="5.88918">
        <ele>923</ele>
        <time>2026-04-17T09:55:13.000Z</time>
      </trkpt>
      <trkpt lat="45.30858" lon="5.88885">
        <ele>930</ele>
        <time>2026-04-17T09:55:58.000Z</time>
      </trkpt>
      <trkpt lat="45.30864" lon="5.88852">
        <ele>938</ele>
        <time>2026-04-17T09:57:01.000Z</time>
      </trkpt>
      <trkpt lat="45.30862" lon="5.88818">
        <ele>943</ele>
        <time>2026-04-17T10:02:34.000Z</time>
      </trkpt>
      <trkpt lat="45.30857" lon="5.88787">
        <ele>947</ele>
        <time>2026-04-17T10:03:10.000Z</time>
      </trkpt>
      <trkpt lat="45.30853" lon="5.88755">
        <ele>951</ele>
        <time>2026-04-17T10:03:55.000Z</time>
      </trkpt>
      <trkpt lat="45.30844" lon="5.88724">
        <ele>953</ele>
        <time>2026-04-17T10:04:22.000Z</time>
      </trkpt>
      <trkpt lat="45.30843" lon="5.88691">
        <ele>955</ele>
        <time>2026-04-17T10:04:49.000Z</time>
      </trkpt>
      <trkpt lat="45.30857" lon="5.88668">
        <ele>957</ele>
        <time>2026-04-17T10:05:40.000Z</time>
      </trkpt>
      <trkpt lat="45.30878" lon="5.88663">
        <ele>961</ele>
        <time>2026-04-17T10:06:07.000Z</time>
      </trkpt>
      <trkpt lat="45.30901" lon="5.88661">
        <ele>964</ele>
        <time>2026-04-17T10:06:40.000Z</time>
      </trkpt>
      <trkpt lat="45.30922" lon="5.88655">
        <ele>968</ele>
        <time>2026-04-17T10:07:22.000Z</time>
      </trkpt>
      <trkpt lat="45.30923" lon="5.88627">
        <ele>969</ele>
        <time>2026-04-17T10:07:55.000Z</time>
      </trkpt>
      <trkpt lat="45.30922" lon="5.88596">
        <ele>971</ele>
        <time>2026-04-17T10:08:16.000Z</time>
      </trkpt>
      <trkpt lat="45.30932" lon="5.88567">
        <ele>975</ele>
        <time>2026-04-17T10:08:49.000Z</time>
      </trkpt>
      <trkpt lat="45.30944" lon="5.8854">
        <ele>980</ele>
        <time>2026-04-17T10:09:34.000Z</time>
      </trkpt>
      <trkpt lat="45.30951" lon="5.88509">
        <ele>985</ele>
        <time>2026-04-17T10:10:19.000Z</time>
      </trkpt>
      <trkpt lat="45.30961" lon="5.8848">
        <ele>989</ele>
        <time>2026-04-17T10:11:01.000Z</time>
      </trkpt>
      <trkpt lat="45.30974" lon="5.88454">
        <ele>996</ele>
        <time>2026-04-17T10:12:13.000Z</time>
      </trkpt>
      <trkpt lat="45.30987" lon="5.88427">
        <ele>1004</ele>
        <time>2026-04-17T10:13:07.000Z</time>
      </trkpt>
      <trkpt lat="45.31001" lon="5.884">
        <ele>1011</ele>
        <time>2026-04-17T10:13:55.000Z</time>
      </trkpt>
      <trkpt lat="45.31011" lon="5.88371">
        <ele>1019</ele>
        <time>2026-04-17T10:14:55.000Z</time>
      </trkpt>
      <trkpt lat="45.31021" lon="5.88342">
        <ele>1027</ele>
        <time>2026-04-17T10:16:07.000Z</time>
      </trkpt>
      <trkpt lat="45.31033" lon="5.88313">
        <ele>1035</ele>
        <time>2026-04-17T10:17:07.000Z</time>
      </trkpt>
      <trkpt lat="45.31045" lon="5.88285">
        <ele>1043</ele>
        <time>2026-04-17T10:18:10.000Z</time>
      </trkpt>
      <trkpt lat="45.31055" lon="5.88255">
        <ele>1049</ele>
        <time>2026-04-17T10:18:58.000Z</time>
      </trkpt>
      <trkpt lat="45.31066" lon="5.88225">
        <ele>1056</ele>
        <time>2026-04-17T10:19:52.000Z</time>
      </trkpt>
      <trkpt lat="45.31078" lon="5.88195">
        <ele>1063</ele>
        <time>2026-04-17T10:20:49.000Z</time>
      </trkpt>
      <trkpt lat="45.31088" lon="5.88167">
        <ele>1071</ele>
        <time>2026-04-17T10:21:49.000Z</time>
      </trkpt>
      <trkpt lat="45.311" lon="5.88136">
        <ele>1078</ele>
        <time>2026-04-17T10:23:07.000Z</time>
      </trkpt>
      <trkpt lat="45.31108" lon="5.88106">
        <ele>1084</ele>
        <time>2026-04-17T10:24:13.000Z</time>
      </trkpt>
      <trkpt lat="45.31118" lon="5.88077">
        <ele>1091</ele>
        <time>2026-04-17T10:25:19.000Z</time>
      </trkpt>
      <trkpt lat="45.31129" lon="5.88049">
        <ele>1096</ele>
        <time>2026-04-17T10:26:19.000Z</time>
      </trkpt>
      <trkpt lat="45.31142" lon="5.8802">
        <ele>1101</ele>
        <time>2026-04-17T10:29:17.000Z</time>
      </trkpt>
      <trkpt lat="45.31157" lon="5.87995">
        <ele>1107</ele>
        <time>2026-04-17T10:29:47.000Z</time>
      </trkpt>
      <trkpt lat="45.31175" lon="5.87976">
        <ele>1112</ele>
        <time>2026-04-17T10:30:44.000Z</time>
      </trkpt>
      <trkpt lat="45.31188" lon="5.87949">
        <ele>1119</ele>
        <time>2026-04-17T10:31:53.000Z</time>
      </trkpt>
      <trkpt lat="45.31204" lon="5.87924">
        <ele>1124</ele>
        <time>2026-04-17T10:32:41.000Z</time>
      </trkpt>
      <trkpt lat="45.31221" lon="5.87902">
        <ele>1133</ele>
        <time>2026-04-17T10:33:44.000Z</time>
      </trkpt>
      <trkpt lat="45.31229" lon="5.87872">
        <ele>1139</ele>
        <time>2026-04-17T10:34:47.000Z</time>
      </trkpt>
      <trkpt lat="45.31237" lon="5.87842">
        <ele>1146</ele>
        <time>2026-04-17T10:35:56.000Z</time>
      </trkpt>
      <trkpt lat="45.31244" lon="5.87813">
        <ele>1154</ele>
        <time>2026-04-17T10:37:17.000Z</time>
      </trkpt>
      <trkpt lat="45.31261" lon="5.878">
        <ele>1158</ele>
        <time>2026-04-17T10:37:50.000Z</time>
      </trkpt>
      <trkpt lat="45.31263" lon="5.87774">
        <ele>1167</ele>
        <time>2026-04-17T10:41:20.000Z</time>
      </trkpt>
      <trkpt lat="45.31247" lon="5.87756">
        <ele>1168</ele>
        <time>2026-04-17T10:42:17.000Z</time>
      </trkpt>
      <trkpt lat="45.31254" lon="5.87727">
        <ele>1177</ele>
        <time>2026-04-17T10:43:41.000Z</time>
      </trkpt>
      <trkpt lat="45.31265" lon="5.87698">
        <ele>1186</ele>
        <time>2026-04-17T10:44:32.000Z</time>
      </trkpt>
      <trkpt lat="45.31263" lon="5.87664">
        <ele>1195</ele>
        <time>2026-04-17T10:45:38.000Z</time>
      </trkpt>
      <trkpt lat="45.31264" lon="5.87631">
        <ele>1206</ele>
        <time>2026-04-17T10:46:59.000Z</time>
      </trkpt>
      <trkpt lat="45.31271" lon="5.87605">
        <ele>1214</ele>
        <time>2026-04-17T10:48:47.000Z</time>
      </trkpt>
      <trkpt lat="45.31258" lon="5.87583">
        <ele>1218</ele>
        <time>2026-04-17T10:50:11.000Z</time>
      </trkpt>
      <trkpt lat="45.31253" lon="5.87555">
        <ele>1225</ele>
        <time>2026-04-17T10:51:08.000Z</time>
      </trkpt>
      <trkpt lat="45.31266" lon="5.8753">
        <ele>1235</ele>
        <time>2026-04-17T10:52:56.000Z</time>
      </trkpt>
      <trkpt lat="45.31287" lon="5.87518">
        <ele>1245</ele>
        <time>2026-04-17T10:54:26.000Z</time>
      </trkpt>
      <trkpt lat="45.31306" lon="5.87501">
        <ele>1254</ele>
        <time>2026-04-17T10:56:08.000Z</time>
      </trkpt>
      <trkpt lat="45.31303" lon="5.87469">
        <ele>1264</ele>
        <time>2026-04-17T10:57:47.000Z</time>
      </trkpt>
      <trkpt lat="45.31308" lon="5.87436">
        <ele>1273</ele>
        <time>2026-04-17T10:59:44.000Z</time>
      </trkpt>
      <trkpt lat="45.31323" lon="5.87411">
        <ele>1281</ele>
        <time>2026-04-17T11:01:11.000Z</time>
      </trkpt>
    </trkseg>
  </trk>
</gpx>